Time;durP1;ratioP1;P1;durP2;ratioP2;P2;SDS_P1;SDS_P2;PMS_P1;PMS_P2;Temp;Humidity;BMP_temperature;BMP_pressure;BME280_temperature;BME280_humidity;BME280_pressure;Samples;Min_cycle;Max_cycle;Signal;HPM_P1;HPM_P2
2022/12/16 00:00:04;;;;;;;42.80;26.17;;;;;;;5.08;100.00;100583.22;4973634;28;20094;-77
2022/12/16 00:02:30;;;;;;;43.42;26.95;;;;;;;5.06;100.00;100580.56;4973594;28;20030;-77
2022/12/16 00:04:56;;;;;;;44.90;26.20;;;;;;;5.09;100.00;100590.97;4973452;28;20081;-75
2022/12/16 00:07:22;;;;;;;40.75;26.70;;;;;;;5.03;100.00;100577.81;4988387;28;20118;-76
2022/12/16 00:09:48;;;;;;;48.90;26.10;;;;;;;4.87;100.00;100558.06;4973361;28;20034;-77
2022/12/16 00:12:13;;;;;;;40.58;26.60;;;;;;;4.75;100.00;100521.50;4973705;28;20030;-77
2022/12/16 00:14:38;;;;;;;43.53;26.33;;;;;;;4.93;100.00;100549.91;4972498;28;20014;-77
2022/12/16 00:17:04;;;;;;;41.22;27.17;;;;;;;5.01;100.00;100541.88;4971684;28;20042;-78
2022/12/16 00:19:30;;;;;;;40.65;26.23;;;;;;;4.98;100.00;100528.91;4973630;28;20051;-77
2022/12/16 00:21:57;;;;;;;38.97;25.13;;;;;;;4.89;100.00;100523.25;4973222;28;20489;-77
2022/12/16 00:24:28;;;;;;;41.55;25.83;;;;;;;4.99;100.00;100540.91;4973415;28;20034;-77
2022/12/16 00:26:56;;;;;;;41.83;25.55;;;;;;;4.91;100.00;100529.34;4973104;28;20400;-77
2022/12/16 00:29:21;;;;;;;40.00;25.85;;;;;;;4.97;100.00;100539.94;4973031;28;20465;-76
2022/12/16 00:31:47;;;;;;;43.72;27.60;;;;;;;4.80;100.00;100545.72;4964755;28;20113;-77
2022/12/16 00:34:15;;;;;;;41.45;26.20;;;;;;;4.37;100.00;100493.69;4967422;28;20405;-78
2022/12/16 00:36:42;;;;;;;48.25;28.48;;;;;;;4.51;100.00;100515.00;4971518;28;20022;-78
2022/12/16 00:39:08;;;;;;;44.92;26.90;;;;;;;4.59;100.00;100542.72;4959625;28;20027;-77
2022/12/16 00:41:35;;;;;;;43.40;28.27;;;;;;;4.56;100.00;100527.16;4954819;28;20413;-78
2022/12/16 00:44:01;;;;;;;41.97;27.63;;;;;;;4.57;100.00;100513.59;4953085;28;20019;-76
2022/12/16 00:46:26;;;;;;;45.75;28.50;;;;;;;4.56;100.00;100522.06;4957039;28;20433;-76
2022/12/16 00:48:52;;;;;;;44.40;28.52;;;;;;;4.57;100.00;100516.16;4955840;28;20122;-76
2022/12/16 00:51:17;;;;;;;48.50;29.35;;;;;;;4.75;100.00;100530.06;4964345;28;20374;-76
2022/12/16 00:53:42;;;;;;;46.28;28.63;;;;;;;4.69;100.00;100534.81;4966553;28;20030;-77
2022/12/16 00:56:11;;;;;;;45.60;28.10;;;;;;;4.75;100.00;100550.53;4970375;28;20034;-77
2022/12/16 00:58:36;;;;;;;48.70;28.85;;;;;;;4.64;100.00;100539.63;4953690;28;20043;-79
2022/12/16 01:01:03;;;;;;;49.85;29.70;;;;;;;4.54;100.00;100552.66;4964936;28;20436;-78
2022/12/16 01:03:29;;;;;;;42.67;27.00;;;;;;;4.54;100.00;100561.19;4955147;28;20023;-77
2022/12/16 01:05:54;;;;;;;46.20;29.42;;;;;;;4.51;100.00;100565.22;4962408;28;20084;-77
2022/12/16 01:08:20;;;;;;;43.95;28.90;;;;;;;4.44;100.00;100545.19;4972151;28;20065;-77
2022/12/16 01:10:53;;;;;;;45.55;30.13;;;;;;;4.60;100.00;100564.91;4972423;28;20046;-80
2022/12/16 01:13:23;;;;;;;45.20;28.45;;;;;;;4.54;100.00;100543.28;4971662;28;20413;-77
2022/12/16 01:15:48;;;;;;;43.47;28.50;;;;;;;4.49;100.00;100546.38;4959442;28;20118;-80
2022/12/16 01:18:14;;;;;;;48.90;29.88;;;;;;;4.60;100.00;100577.69;4972368;28;20113;-81
2022/12/16 01:20:39;;;;;;;47.00;29.88;;;;;;;4.68;100.00;100577.38;4958977;28;20027;-79
2022/12/16 01:23:04;;;;;;;43.63;28.38;;;;;;;4.67;100.00;100584.97;4955035;28;20039;-79
2022/12/16 01:25:30;;;;;;;49.60;29.33;;;;;;;4.57;100.00;100563.06;4952462;28;20042;-79
2022/12/16 01:27:56;;;;;;;49.35;29.20;;;;;;;4.66;100.00;100557.63;4963074;28;20022;-78
2022/12/16 01:30:22;;;;;;;46.97;28.80;;;;;;;4.89;100.00;100570.97;4971597;28;20026;-80
2022/12/16 01:32:47;;;;;;;47.35;29.60;;;;;;;4.93;100.00;100555.88;4971514;28;20497;-79
2022/12/16 01:35:13;;;;;;;47.13;29.58;;;;;;;4.84;100.00;100534.88;4971893;28;20027;-78
2022/12/16 01:37:38;;;;;;;46.92;29.92;;;;;;;5.05;100.00;100570.22;4999943;28;20477;-78
2022/12/16 01:40:05;;;;;;;47.50;29.80;;;;;;;4.80;100.00;100509.91;4972314;28;20031;-80
2022/12/16 01:42:32;;;;;;;45.47;28.55;;;;;;;4.84;100.00;100515.28;4971813;28;20084;-80
2022/12/16 01:45:23;;;;;;;48.58;30.25;;;;;;;5.06;100.00;100549.84;4971975;28;20027;-82
2022/12/16 01:47:50;;;;;;;48.85;30.30;;;;;;;5.12;100.00;100555.34;4986506;28;20058;-80
2022/12/16 01:50:18;;;;;;;44.25;29.75;;;;;;;5.14;100.00;100534.94;4971728;28;20456;-81
2022/12/16 01:52:55;;;;;;;44.08;30.52;;;;;;;5.27;100.00;100557.94;4971621;28;20031;-78
2022/12/16 01:55:26;;;;;;;52.25;32.47;;;;;;;5.33;100.00;100560.88;4971759;28;20220;-78
2022/12/16 01:58:01;;;;;;;50.05;32.30;;;;;;;5.30;100.00;100542.75;4972156;28;20027;-78
2022/12/16 02:00:27;;;;;;;52.22;33.65;;;;;;;5.44;100.00;100571.72;4971257;28;20110;-77
2022/12/16 02:02:54;;;;;;;49.35;31.48;;;;;;;5.44;100.00;100571.72;4971526;28;20113;-77
2022/12/16 02:05:21;;;;;;;49.67;30.75;;;;;;;5.30;100.00;100541.88;4971735;28;20113;-79
2022/12/16 02:08:04;;;;;;;50.53;31.88;;;;;;;5.39;100.00;100547.53;4971680;28;20042;-78
2022/12/16 02:10:42;;;;;;;47.67;30.92;;;;;;;5.46;100.00;100538.53;4971886;28;20031;-78
2022/12/16 02:13:20;;;;;;;48.15;29.80;;;;;;;5.51;100.00;100545.69;4971903;28;20476;-78
2022/12/16 02:16:01;;;;;;;45.53;28.48;;;;;;;5.56;100.00;100552.75;4971513;28;20078;-78
2022/12/16 02:18:52;;;;;;;44.05;29.08;;;;;;;5.38;100.00;100566.22;4971421;28;20065;-78
2022/12/16 02:21:44;;;;;;;45.58;28.90;;;;;;;5.02;100.00;100536.00;4949993;28;20126;-78
2022/12/16 02:24:35;;;;;;;48.78;30.25;;;;;;;5.26;100.00;100571.53;4949867;28;20082;-78
2022/12/16 02:27:32;;;;;;;48.75;31.13;;;;;;;5.18;100.00;100560.84;4949758;28;20090;-78
2022/12/16 02:30:38;;;;;;;52.03;31.15;;;;;;;5.28;100.00;100585.31;4892945;29;20092;-77
2022/12/16 02:33:10;;;;;;;55.05;32.28;;;;;;;5.21;100.00;100582.25;4892874;29;20712;-78
2022/12/16 02:35:54;;;;;;;48.88;32.03;;;;;;;5.24;100.00;100572.22;4892968;29;20044;-77
2022/12/16 02:38:32;;;;;;;54.50;33.33;;;;;;;5.25;100.00;100564.63;4894990;29;20049;-78
2022/12/16 02:41:05;;;;;;;52.58;33.85;;;;;;;5.29;100.00;100555.47;4896723;29;20096;-78
2022/12/16 02:44:02;;;;;;;53.40;35.10;;;;;;;5.31;100.00;100538.53;4896764;29;20080;-78
2022/12/16 02:46:32;;;;;;;55.28;34.63;;;;;;;5.20;100.00;100519.97;4840796;29;20062;-78
2022/12/16 02:49:07;;;;;;;59.50;34.50;;;;;;;5.45;100.00;100563.25;4840783;29;20126;-78
2022/12/16 02:51:35;;;;;;;57.20;36.15;;;;;;;5.44;100.00;100540.13;4840730;29;20038;-78
2022/12/16 02:54:02;;;;;;;56.15;34.83;;;;;;;5.47;100.00;100538.63;4840954;29;20053;-78
2022/12/16 02:56:54;;;;;;;54.00;35.10;;;;;;;5.66;100.00;100549.94;4840982;29;20046;-78
2022/12/16 02:59:52;;;;;;;56.75;35.10;;;;;;;5.75;100.00;100550.47;4823756;29;20057;-78
2022/12/16 03:02:31;;;;;;;55.50;35.30;;;;;;;5.85;100.00;100545.88;4822180;29;20081;-79
2022/12/16 03:05:15;;;;;;;53.30;34.23;;;;;;;5.90;100.00;100542.78;4822123;29;20054;-78
2022/12/16 03:07:43;;;;;;;57.35;36.05;;;;;;;5.91;100.00;100539.41;4836983;29;20857;-79
2022/12/16 03:10:14;;;;;;;58.42;36.15;;;;;;;5.99;100.00;100535.66;4822047;29;20044;-78
2022/12/16 03:12:42;;;;;;;54.67;34.97;;;;;;;5.62;100.00;100463.47;4821978;29;20163;-78
2022/12/16 03:15:12;;;;;;;53.00;33.78;;;;;;;6.05;100.00;100536.78;4822005;29;20042;-79
2022/12/16 03:17:38;;;;;;;60.60;35.05;;;;;;;6.10;100.00;100536.22;4821938;29;20624;-78
2022/12/16 03:20:25;;;;;;;50.42;33.30;;;;;;;6.19;100.00;100546.13;4821876;29;20038;-77
2022/12/16 03:22:55;;;;;;;48.63;33.80;;;;;;;6.22;100.00;100533.47;4859029;29;20064;-77
2022/12/16 03:25:22;;;;;;;50.78;33.28;;;;;;;6.13;100.00;100520.13;4895918;29;20108;-77
2022/12/16 03:27:57;;;;;;;54.05;32.80;;;;;;;6.22;100.00;100524.88;4895919;29;20043;-78
2022/12/16 03:30:32;;;;;;;49.83;33.63;;;;;;;6.30;100.00;100539.03;4895950;29;20048;-78
2022/12/16 03:33:02;;;;;;;50.60;33.95;;;;;;;6.34;100.00;100546.09;4895888;29;20100;-77
2022/12/16 03:35:37;;;;;;;49.15;31.20;;;;;;;6.35;100.00;100550.41;4895790;29;20502;-78
2022/12/16 03:38:07;;;;;;;50.13;33.13;;;;;;;6.27;100.00;100552.56;4895747;29;20569;-78
2022/12/16 03:40:33;;;;;;;51.78;32.30;;;;;;;6.11;100.00;100522.63;4973109;28;20026;-77
2022/12/16 03:43:01;;;;;;;53.67;34.03;;;;;;;6.22;100.00;100535.16;4974124;28;20408;-78
2022/12/16 03:45:36;;;;;;;53.78;34.22;;;;;;;6.30;100.00;100547.59;4974097;28;20041;-78
2022/12/16 03:48:01;;;;;;;52.38;33.58;;;;;;;6.33;100.00;100554.59;4974328;28;20066;-78
2022/12/16 03:50:32;;;;;;;46.72;31.95;;;;;;;6.38;100.00;100572.78;4973266;28;20477;-79
2022/12/16 03:52:57;;;;;;;47.22;30.40;;;;;;;6.31;100.00;100566.44;4974280;28;20023;-79
2022/12/16 03:55:23;;;;;;;41.65;27.65;;;;;;;6.18;100.00;100549.50;4974216;28;20033;-78
2022/12/16 03:57:48;;;;;;;49.78;29.73;;;;;;;6.11;100.00;100543.13;4973723;28;20054;-78
2022/12/16 04:00:14;;;;;;;47.00;29.27;;;;;;;6.12;100.00;100555.16;4973844;28;20031;-78
2022/12/16 04:02:40;;;;;;;47.83;29.15;;;;;;;6.21;100.00;100559.91;4974116;28;20034;-78
2022/12/16 04:05:06;;;;;;;43.40;28.33;;;;;;;6.18;100.00;100553.72;4973836;28;20034;-78
2022/12/16 04:07:31;;;;;;;41.90;29.10;;;;;;;5.95;100.00;100519.97;4972569;28;20074;-78
2022/12/16 04:09:57;;;;;;;46.70;28.77;;;;;;;6.04;100.00;100547.84;4955842;28;20486;-78
2022/12/16 04:26:09;;;;;;;46.00;28.90;;;;;;;6.02;100.00;100564.78;4954414;28;20035;-78
2022/12/16 04:28:35;;;;;;;40.75;27.35;;;;;;;6.06;100.00;100580.44;4954018;28;20428;-78
2022/12/16 04:31:00;;;;;;;43.08;29.50;;;;;;;6.10;100.00;100594.31;4954014;28;20027;-78
